createdAt,value
2018-08-28T00:00:01.405Z,98223.05
2018-08-28T00:02:30.873Z,98221.00
2018-08-28T00:05:00.417Z,98222.47
2018-08-28T00:07:28.700Z,98229.14
2018-08-28T00:09:56.909Z,98230.84
2018-08-28T00:12:25.213Z,98232.55
2018-08-28T00:14:53.465Z,98226.72
2018-08-28T00:17:21.637Z,98231.59
2018-08-28T00:19:49.890Z,98235.91
2018-08-28T00:22:18.065Z,98245.23
2018-08-28T00:24:46.234Z,98246.12
2018-08-28T00:27:14.562Z,98243.68
2018-08-28T00:29:42.809Z,98246.91
2018-08-28T00:32:11.001Z,98247.11
2018-08-28T00:34:39.321Z,98252.59
2018-08-28T00:37:07.577Z,98260.88
2018-08-28T00:39:35.738Z,98252.09
2018-08-28T00:42:03.948Z,98250.64
2018-08-28T00:44:32.125Z,98252.06
2018-08-28T00:47:00.298Z,98254.56
2018-08-28T00:49:28.476Z,98246.01
2018-08-28T00:51:56.650Z,98254.30
2018-08-28T00:54:24.845Z,98250.38
2018-08-28T00:56:53.057Z,98255.13
2018-08-28T00:59:21.320Z,98261.27
2018-08-28T01:01:49.489Z,98242.70
2018-08-28T01:04:17.712Z,98254.80
2018-08-28T01:06:45.870Z,98255.16
2018-08-28T01:09:14.033Z,98257.53
2018-08-28T01:11:42.217Z,98256.41
2018-08-28T01:14:10.409Z,98250.66
2018-08-28T01:16:38.593Z,98254.71
2018-08-28T01:19:06.877Z,98251.03
2018-08-28T01:21:35.063Z,98251.64
2018-08-28T01:24:03.221Z,98248.94
2018-08-28T01:26:31.489Z,98250.60
2018-08-28T01:28:59.658Z,98250.12
2018-08-28T01:31:27.817Z,98245.27
2018-08-28T01:33:56.057Z,98253.18
2018-08-28T01:36:24.222Z,98262.11
2018-08-28T01:38:52.414Z,98255.33
2018-08-28T01:41:20.645Z,98254.25
2018-08-28T01:43:48.847Z,98250.38
2018-08-28T01:46:17.021Z,98257.05
2018-08-28T01:48:45.197Z,98255.17
2018-08-28T01:51:13.449Z,98253.83
2018-08-28T01:53:41.639Z,98254.58
2018-08-28T01:56:09.821Z,98231.41
2018-08-28T01:58:38.010Z,98242.82
2018-08-28T02:01:06.365Z,98250.69
2018-08-28T02:03:34.539Z,98245.38
2018-08-28T02:06:02.705Z,98242.52
2018-08-28T02:08:30.877Z,98248.56
2018-08-28T02:10:59.061Z,98247.94
2018-08-28T02:13:27.236Z,98242.00
2018-08-28T02:15:55.389Z,98241.78
2018-08-28T02:18:23.614Z,98245.34
2018-08-28T02:20:51.785Z,98247.56
2018-08-28T02:23:19.957Z,98251.72
2018-08-28T02:25:48.122Z,98249.41
2018-08-28T02:28:16.302Z,98250.44
2018-08-28T02:30:44.573Z,98244.05
2018-08-28T02:33:12.741Z,98224.19
2018-08-28T02:35:41.030Z,98241.61
2018-08-28T02:38:09.214Z,98246.63
2018-08-28T02:40:37.377Z,98245.24
2018-08-28T02:43:05.633Z,98243.41
2018-08-28T02:45:33.799Z,98254.68
2018-08-28T02:48:01.988Z,98255.72
2018-08-28T02:50:30.522Z,98257.13
2018-08-28T02:52:58.688Z,98264.07
2018-08-28T02:55:26.877Z,98262.00
2018-08-28T02:57:55.050Z,98263.20
2018-08-28T03:00:23.302Z,98267.38
2018-08-28T03:02:51.590Z,98261.24
2018-08-28T03:05:19.751Z,98267.59
2018-08-28T03:07:47.938Z,98273.05
2018-08-28T03:10:16.100Z,98262.16
2018-08-28T03:12:44.301Z,98266.86
2018-08-28T03:15:12.473Z,98273.78
2018-08-28T03:17:40.710Z,98275.77
2018-08-28T03:20:09.007Z,98272.93
2018-08-28T03:22:37.223Z,98274.64
2018-08-28T03:25:05.405Z,98272.11
2018-08-28T03:27:33.657Z,98279.32
2018-08-28T03:30:01.825Z,98272.58
2018-08-28T03:32:30.321Z,98273.77
2018-08-28T03:34:58.516Z,98274.58
2018-08-28T03:37:26.719Z,98284.09
2018-08-28T03:39:54.995Z,98283.63
2018-08-28T03:42:23.183Z,98287.44
2018-08-28T03:44:51.485Z,98280.14
2018-08-28T03:47:19.589Z,98291.39
2018-08-28T03:49:47.769Z,98291.96
2018-08-28T03:52:15.953Z,98289.85
2018-08-28T03:54:44.157Z,98295.20
2018-08-28T03:57:12.364Z,98294.35
2018-08-28T03:59:43.590Z,98301.91
2018-08-28T04:02:11.777Z,98306.05
2018-08-28T04:04:39.962Z,98305.02
2018-08-28T04:07:08.246Z,98290.61
2018-08-28T04:09:36.521Z,98306.47
2018-08-28T04:12:04.710Z,98307.08
2018-08-28T04:14:33.409Z,98300.21
2018-08-28T04:17:01.766Z,98306.48
2018-08-28T04:19:29.913Z,98311.24
2018-08-28T04:21:58.178Z,98309.97
2018-08-28T04:24:26.354Z,98304.28
2018-08-28T04:26:54.530Z,98319.59
2018-08-28T04:29:22.701Z,98319.34
2018-08-28T04:31:50.877Z,98320.36
2018-08-28T04:34:19.061Z,98317.16
2018-08-28T04:36:47.237Z,98325.85
2018-08-28T04:39:15.477Z,98330.72
2018-08-28T04:41:44.240Z,98323.75
2018-08-28T04:44:12.425Z,98327.45
2018-08-28T04:46:40.602Z,98324.58
2018-08-28T04:49:08.769Z,98314.59
2018-08-28T04:51:37.045Z,98328.02
2018-08-28T04:54:05.457Z,98328.73
2018-08-28T04:56:33.649Z,98324.47
2018-08-28T04:59:01.825Z,98325.97
2018-08-28T05:01:30.068Z,98327.34
2018-08-28T05:03:58.249Z,98343.33
2018-08-28T05:06:26.429Z,98342.88
2018-08-28T05:08:54.949Z,98346.53
2018-08-28T05:11:23.117Z,98346.64
2018-08-28T05:13:51.289Z,98347.22
2018-08-28T05:16:19.524Z,98345.92
2018-08-28T05:18:47.702Z,98349.19
2018-08-28T05:21:15.885Z,98350.12
2018-08-28T05:23:44.055Z,98345.66
2018-08-28T05:26:12.241Z,98344.05
2018-08-28T05:28:40.433Z,98326.22
2018-08-28T05:31:08.704Z,98331.17
2018-08-28T05:33:36.889Z,98350.22
2018-08-28T05:36:06.650Z,98354.16
2018-08-28T05:38:35.313Z,98350.57
2018-08-28T05:41:03.501Z,98346.16
2018-08-28T05:43:31.678Z,98353.94
2018-08-28T05:46:00.129Z,98357.52
2018-08-28T05:48:28.306Z,98356.95
2018-08-28T05:50:56.469Z,98347.67
2018-08-28T05:53:24.633Z,98329.91
2018-08-28T05:55:52.910Z,98345.42
2018-08-28T05:58:21.003Z,98343.56
2018-08-28T06:00:49.181Z,98345.50
2018-08-28T06:03:17.587Z,98330.39
2018-08-28T06:05:45.725Z,98340.81
2018-08-28T06:08:13.897Z,98337.77
2018-08-28T06:10:42.134Z,98344.06
2018-08-28T06:13:10.555Z,98336.16
2018-08-28T06:15:38.809Z,98347.02
2018-08-28T06:18:07.217Z,98351.38
2018-08-28T06:20:35.402Z,98354.74
2018-08-28T06:23:03.598Z,98351.11
2018-08-28T06:25:31.745Z,98356.59
2018-08-28T06:27:59.930Z,98354.77
2018-08-28T06:30:28.093Z,98358.66
2018-08-28T06:32:56.253Z,98354.53
2018-08-28T06:35:24.433Z,98353.17
2018-08-28T06:37:52.605Z,98354.32
2018-08-28T06:40:20.793Z,98350.50
2018-08-28T06:42:49.157Z,98349.48
2018-08-28T06:45:17.357Z,98344.60
2018-08-28T06:47:45.578Z,98343.61
2018-08-28T06:50:13.745Z,98349.98
2018-08-28T06:52:41.941Z,98345.66
2018-08-28T06:55:10.187Z,98350.84
2018-08-28T06:57:38.640Z,98351.58
2018-08-28T07:00:07.497Z,98354.54
2018-08-28T07:02:35.715Z,98354.73
2018-08-28T07:05:03.917Z,98351.02
2018-08-28T07:07:32.093Z,98349.05
2018-08-28T07:10:00.262Z,98343.25
2018-08-28T07:12:28.453Z,98348.51
2018-08-28T07:14:56.618Z,98347.97
2018-08-28T07:17:24.805Z,98347.50
2018-08-28T07:19:53.005Z,98351.56
2018-08-28T07:22:21.186Z,98349.42
2018-08-28T07:24:49.361Z,98343.47
2018-08-28T07:27:17.534Z,98340.67
2018-08-28T07:29:45.738Z,98342.68
2018-08-28T07:32:13.909Z,98337.36
2018-08-28T07:34:42.090Z,98342.82
2018-08-28T07:37:10.273Z,98335.45
2018-08-28T07:39:38.467Z,98340.60
2018-08-28T07:42:06.693Z,98338.69
2018-08-28T07:44:34.857Z,98335.31
2018-08-28T07:47:03.137Z,98335.89
2018-08-28T07:49:31.343Z,98331.13
2018-08-28T07:51:59.585Z,98337.86
2018-08-28T07:54:27.749Z,98334.42
2018-08-28T07:56:55.921Z,98335.91
2018-08-28T07:59:24.098Z,98341.97
2018-08-28T08:01:52.286Z,98338.48
2018-08-28T08:04:20.462Z,98348.27
2018-08-28T08:06:48.641Z,98345.35
2018-08-28T08:09:16.817Z,98348.05
2018-08-28T08:11:45.026Z,98347.32
2018-08-28T08:14:13.341Z,98351.92
2018-08-28T08:16:41.527Z,98350.67
2018-08-28T08:19:09.718Z,98347.05
2018-08-28T08:21:37.933Z,98345.17
2018-08-28T08:24:06.109Z,98352.30
2018-08-28T08:26:34.281Z,98349.63
2018-08-28T08:29:02.469Z,98353.35
2018-08-28T08:31:30.653Z,98351.09
2018-08-28T08:33:58.845Z,98350.49
2018-08-28T08:36:27.122Z,98346.78
2018-08-28T08:38:55.294Z,98348.81
2018-08-28T08:41:23.506Z,98347.37
2018-08-28T08:43:51.709Z,98337.78
2018-08-28T08:46:19.921Z,98338.86
2018-08-28T08:48:48.130Z,98339.24
2018-08-28T08:51:16.401Z,98342.56
2018-08-28T08:53:44.533Z,98327.98
2018-08-28T08:56:12.705Z,98337.80
2018-08-28T08:58:40.888Z,98343.59
2018-08-28T09:01:09.184Z,98330.97
2018-08-28T09:03:37.362Z,98338.89
2018-08-28T09:06:05.592Z,98333.80
2018-08-28T09:08:33.737Z,98333.71
2018-08-28T09:11:01.923Z,98329.62
2018-08-28T09:13:30.354Z,98321.61
2018-08-28T09:15:58.496Z,98330.13
2018-08-28T09:18:26.681Z,98324.64
2018-08-28T09:20:54.878Z,98323.41
2018-08-28T09:23:23.042Z,98322.45
2018-08-28T09:25:51.226Z,98321.41
2018-08-28T09:28:19.417Z,98321.67
2018-08-28T09:30:47.833Z,98319.73
2018-08-28T09:33:16.022Z,98325.52
2018-08-28T09:35:44.198Z,98317.28
2018-08-28T09:38:12.473Z,98311.56
2018-08-28T09:40:40.770Z,98309.66
2018-08-28T09:43:09.021Z,98313.41
2018-08-28T09:45:37.372Z,98313.12
2018-08-28T09:48:05.724Z,98310.59
2018-08-28T09:50:33.956Z,98306.08
2018-08-28T09:53:02.209Z,98302.08
2018-08-28T09:55:30.449Z,98297.95
2018-08-28T09:57:58.693Z,98296.69
2018-08-28T10:00:26.922Z,98293.60
2018-08-28T10:02:55.333Z,98293.77
2018-08-28T10:05:23.694Z,98290.23
2018-08-28T10:07:52.032Z,98280.73
2018-08-28T10:10:20.246Z,98283.28
2018-08-28T10:12:48.509Z,98287.01
2018-08-28T10:15:16.827Z,98284.30
2018-08-28T10:17:45.081Z,98274.95
2018-08-28T10:20:13.389Z,98279.80
2018-08-28T10:22:41.573Z,98265.15
2018-08-28T10:25:10.014Z,98273.59
2018-08-28T10:27:38.260Z,98270.63
2018-08-28T10:30:07.099Z,98270.02
2018-08-28T10:32:35.309Z,98268.89
2018-08-28T10:35:03.601Z,98261.52
2018-08-28T10:37:31.841Z,98252.48
2018-08-28T10:40:00.122Z,98256.25
2018-08-28T10:42:28.369Z,98264.15
2018-08-28T10:44:56.620Z,98261.80
2018-08-28T10:47:24.803Z,98256.89
2018-08-28T10:49:53.021Z,98254.89
2018-08-28T10:52:21.382Z,98259.52
2018-08-28T10:54:49.561Z,98255.55
2018-08-28T10:57:17.883Z,98246.64
2018-08-28T10:59:46.142Z,98253.95
2018-08-28T11:02:14.422Z,98250.70
2018-08-28T11:04:42.687Z,98246.47
2018-08-28T11:07:10.921Z,98239.07
2018-08-28T11:09:39.154Z,98237.62
2018-08-28T11:12:07.439Z,98240.64
2018-08-28T11:14:35.677Z,98234.59
2018-08-28T11:17:03.918Z,98241.84
2018-08-28T11:19:32.499Z,98241.42
2018-08-28T11:22:00.733Z,98232.92
2018-08-28T11:24:29.029Z,98237.78
2018-08-28T11:26:57.342Z,98235.38
2018-08-28T11:29:25.584Z,98239.41
2018-08-28T11:31:53.955Z,98225.89
2018-08-28T11:34:22.158Z,98231.96
2018-08-28T11:36:50.442Z,98238.22
2018-08-28T11:39:18.661Z,98235.01
2018-08-28T11:41:46.977Z,98226.98
2018-08-28T11:44:15.242Z,98224.75
2018-08-28T11:46:43.563Z,98226.52
2018-08-28T11:49:12.075Z,98214.44
2018-08-28T11:51:40.376Z,98210.70
2018-08-28T11:54:08.628Z,98208.98
2018-08-28T11:56:37.261Z,98206.58
2018-08-28T11:59:05.553Z,98201.09
2018-08-28T12:01:33.798Z,98201.09
2018-08-28T12:04:02.002Z,98201.42
2018-08-28T12:06:30.265Z,98203.73
2018-08-28T12:08:58.462Z,98201.97
2018-08-28T12:11:26.689Z,98203.92
2018-08-28T12:13:54.910Z,98203.97
2018-08-28T12:16:23.242Z,98193.11
2018-08-28T12:18:51.474Z,98196.92
2018-08-28T12:21:19.665Z,98193.31
2018-08-28T12:23:47.924Z,98183.08
2018-08-28T12:26:16.102Z,98186.22
2018-08-28T12:28:44.293Z,98178.11
2018-08-28T12:31:12.473Z,98178.44
2018-08-28T12:33:40.702Z,98183.02
2018-08-28T12:36:08.902Z,98171.87
2018-08-28T12:38:37.109Z,98165.89
2018-08-28T12:41:05.345Z,98163.61
2018-08-28T12:43:33.609Z,98154.33
2018-08-28T12:46:01.897Z,98162.34
2018-08-28T12:48:30.078Z,98157.59
2018-08-28T12:50:58.253Z,98153.41
2018-08-28T12:53:26.460Z,98149.39
2018-08-28T12:55:54.709Z,98151.95
2018-08-28T12:58:22.885Z,98147.72
2018-08-28T13:00:51.069Z,98148.19
2018-08-28T13:03:19.250Z,98144.70
2018-08-28T13:05:47.441Z,98144.39
2018-08-28T13:08:15.626Z,98155.30
2018-08-28T13:10:43.837Z,98145.12
2018-08-28T13:13:12.049Z,98145.57
2018-08-28T13:15:40.242Z,98138.42
2018-08-28T13:18:08.434Z,98136.14
2018-08-28T13:20:36.610Z,98134.55
2018-08-28T13:23:04.785Z,98140.27
2018-08-28T13:25:33.085Z,98138.00
2018-08-28T13:28:01.173Z,98131.46
2018-08-28T13:30:29.370Z,98128.72
2018-08-28T13:32:58.043Z,98129.29
2018-08-28T13:35:26.254Z,98130.08
2018-08-28T13:37:54.483Z,98124.74
2018-08-28T13:40:22.739Z,98129.54
2018-08-28T13:42:50.885Z,98128.48
2018-08-28T13:45:19.089Z,98128.30
2018-08-28T13:47:47.272Z,98125.19
2018-08-28T13:50:15.442Z,98125.09
2018-08-28T13:52:43.637Z,98120.77
2018-08-28T13:55:11.822Z,98119.49
2018-08-28T13:57:40.153Z,98123.81
2018-08-28T14:00:08.429Z,98121.00
2018-08-28T14:02:36.593Z,98116.34
2018-08-28T14:05:04.825Z,98119.44
2018-08-28T14:07:33.025Z,98113.94
2018-08-28T14:10:01.206Z,98110.77
2018-08-28T14:12:29.405Z,98114.40
2018-08-28T14:14:57.755Z,98106.56
2018-08-28T14:17:25.822Z,98109.07
2018-08-28T14:19:54.727Z,98098.73
2018-08-28T14:22:23.029Z,98100.58
2018-08-28T14:24:51.222Z,98106.14
2018-08-28T14:27:19.485Z,98091.66
2018-08-28T14:29:47.700Z,98083.80
2018-08-28T14:32:16.066Z,98093.43
2018-08-28T14:34:44.353Z,98090.86
2018-08-28T14:37:12.566Z,98089.75
2018-08-28T14:39:40.787Z,98087.61
2018-08-28T14:42:09.063Z,98081.36
2018-08-28T14:44:37.238Z,98085.16
2018-08-28T14:47:05.767Z,98081.23
2018-08-28T14:49:33.970Z,98073.89
2018-08-28T14:52:02.225Z,98072.98
2018-08-28T14:54:30.850Z,98069.81
2018-08-28T14:56:59.037Z,98072.18
2018-08-28T14:59:27.262Z,98069.12
2018-08-28T15:01:55.459Z,98063.56
2018-08-28T15:04:23.652Z,98064.67
2018-08-28T15:06:51.857Z,98067.48
2018-08-28T15:09:20.109Z,98055.74
2018-08-28T15:11:48.298Z,98057.41
2018-08-28T15:14:16.482Z,98054.20
2018-08-28T15:16:44.793Z,98061.98
2018-08-28T15:19:12.922Z,98058.13
2018-08-28T15:21:41.124Z,98052.26
2018-08-28T15:24:09.355Z,98061.05
2018-08-28T15:26:37.577Z,98062.34
2018-08-28T15:29:05.782Z,98061.31
2018-08-28T15:31:33.979Z,98053.62
2018-08-28T15:34:02.191Z,98053.66
2018-08-28T15:36:30.427Z,98047.34
2018-08-28T15:38:59.060Z,98049.25
2018-08-28T15:41:27.263Z,98045.85
2018-08-28T15:43:55.449Z,98047.72
2018-08-28T15:46:23.625Z,98038.31
2018-08-28T15:48:51.818Z,98039.59
2018-08-28T15:51:20.115Z,98032.52
2018-08-28T15:53:48.231Z,98034.97
2018-08-28T15:56:16.441Z,98039.22
2018-08-28T15:58:44.626Z,98039.09
2018-08-28T16:01:12.806Z,98036.14
2018-08-28T16:03:41.047Z,98042.57
2018-08-28T16:06:09.230Z,98046.63
2018-08-28T16:08:37.421Z,98041.67
2018-08-28T16:11:05.653Z,98039.04
2018-08-28T16:13:33.834Z,98040.77
2018-08-28T16:16:02.030Z,98040.71
2018-08-28T16:18:30.217Z,98031.51
2018-08-28T16:20:58.409Z,98030.58
2018-08-28T16:23:31.776Z,98038.11
2018-08-28T16:26:00.022Z,98031.24
2018-08-28T16:28:28.502Z,98026.30
2018-08-28T16:30:56.629Z,98021.89
2018-08-28T16:33:24.793Z,98021.33
2018-08-28T16:35:53.126Z,98023.13
2018-08-28T16:38:21.240Z,98019.57
2018-08-28T16:40:49.418Z,98011.14
2018-08-28T16:43:17.605Z,98012.80
2018-08-28T16:45:45.790Z,98002.89
2018-08-28T16:48:14.046Z,98006.20
2018-08-28T16:50:42.189Z,98007.52
2018-08-28T16:53:10.373Z,97993.66
2018-08-28T16:55:38.552Z,97998.91
2018-08-28T16:58:06.825Z,97994.92
2018-08-28T17:00:35.022Z,97995.08
2018-08-28T17:03:03.270Z,97990.06
2018-08-28T17:05:31.478Z,97992.97
2018-08-28T17:07:59.646Z,97986.73
2018-08-28T17:10:27.850Z,97986.20
2018-08-28T17:12:56.242Z,97987.38
2018-08-28T17:15:24.427Z,97987.25
2018-08-28T17:17:52.634Z,97990.48
2018-08-28T17:20:20.833Z,97996.73
2018-08-28T17:22:49.021Z,97992.30
2018-08-28T17:25:17.249Z,97990.87
2018-08-28T17:27:45.449Z,97995.14
2018-08-28T17:30:13.749Z,98002.78
2018-08-28T17:32:41.949Z,97998.63
2018-08-28T17:35:10.148Z,98004.55
2018-08-28T17:37:38.361Z,98003.02
2018-08-28T17:40:06.593Z,97998.36
2018-08-28T17:42:34.799Z,97999.00
2018-08-28T17:45:02.946Z,98001.61
2018-08-28T17:47:31.133Z,97997.83
2018-08-28T17:49:59.308Z,98006.88
2018-08-28T17:52:27.498Z,98004.87
2018-08-28T17:54:55.673Z,98000.86
2018-08-28T17:57:23.849Z,98001.08
2018-08-28T17:59:52.126Z,98006.50
2018-08-28T18:02:20.329Z,98016.96
2018-08-28T18:04:48.510Z,98014.54
2018-08-28T18:07:16.694Z,98010.71
2018-08-28T18:09:44.874Z,98012.95
2018-08-28T18:12:13.058Z,98018.16
2018-08-28T18:14:41.249Z,98007.92
2018-08-28T18:17:09.453Z,98009.31
2018-08-28T18:19:37.626Z,98009.31
2018-08-28T18:22:05.811Z,98016.16
2018-08-28T18:24:34.117Z,98015.34
2018-08-28T18:27:02.381Z,98013.14
2018-08-28T18:29:30.589Z,98006.11
2018-08-28T18:31:58.745Z,98009.12
2018-08-28T18:34:26.969Z,98006.91
2018-08-28T18:36:55.130Z,98016.34
2018-08-28T18:39:23.333Z,98014.33
2018-08-28T18:41:51.536Z,98011.48
2018-08-28T18:44:19.734Z,98008.47
2018-08-28T18:46:48.078Z,98014.08
2018-08-28T18:49:16.217Z,98019.69
2018-08-28T18:51:44.399Z,98018.23
2018-08-28T18:54:12.577Z,98020.03
2018-08-28T18:56:40.845Z,98016.14
2018-08-28T18:59:09.041Z,98018.12
2018-08-28T19:01:37.242Z,98018.90
2018-08-28T19:04:05.750Z,98016.95
2018-08-28T19:06:33.934Z,98018.16
2018-08-28T19:09:02.253Z,98022.72
2018-08-28T19:11:30.793Z,98019.50
2018-08-28T19:13:59.341Z,98027.36
2018-08-28T19:16:27.589Z,98032.31
2018-08-28T19:18:55.866Z,98023.03
2018-08-28T19:21:24.167Z,98017.55
2018-08-28T19:23:52.434Z,98023.29
2018-08-28T19:26:20.610Z,98016.64
2018-08-28T19:28:55.353Z,98020.30
2018-08-28T19:31:23.541Z,98016.52
2018-08-28T19:33:51.950Z,98013.64
2018-08-28T19:36:20.229Z,98012.98
2018-08-28T19:38:48.627Z,98010.11
2018-08-28T19:41:17.049Z,98009.14
2018-08-28T19:43:45.225Z,98012.22
2018-08-28T19:46:13.471Z,98010.57
2018-08-28T19:48:41.709Z,98002.70
2018-08-28T19:51:09.952Z,98014.13
2018-08-28T19:53:38.333Z,98003.20
2018-08-28T19:56:06.558Z,98007.26
2018-08-28T19:58:34.840Z,98001.77
2018-08-28T20:01:03.190Z,98006.48
2018-08-28T20:03:31.405Z,98004.53
2018-08-28T20:05:59.698Z,98003.91
2018-08-28T20:08:28.032Z,98003.09
2018-08-28T20:10:56.282Z,97999.29
2018-08-28T20:13:24.999Z,97999.48
2018-08-28T20:15:53.254Z,98002.34
2018-08-28T20:18:21.550Z,97996.23
2018-08-28T20:20:50.099Z,97997.50
2018-08-28T20:23:18.353Z,97990.44
2018-08-28T20:25:46.617Z,97991.90
2018-08-28T20:28:14.810Z,97989.81
2018-08-28T20:30:43.111Z,97990.47
2018-08-28T20:33:11.433Z,97990.50
2018-08-28T20:35:39.688Z,97991.99
2018-08-28T20:38:07.994Z,97989.37
2018-08-28T20:40:36.173Z,97987.97
2018-08-28T20:43:04.745Z,97982.65
2018-08-28T20:45:32.974Z,97985.34
2018-08-28T20:48:01.439Z,97977.65
2018-08-28T20:50:30.099Z,97973.37
2018-08-28T20:52:58.413Z,97980.67
2018-08-28T20:55:26.718Z,97974.61
2018-08-28T20:57:55.015Z,97979.55
2018-08-28T21:00:23.297Z,97977.70
2018-08-28T21:02:51.692Z,97968.61
2018-08-28T21:05:29.441Z,97974.83
2018-08-28T21:07:59.295Z,97971.81
2018-08-28T21:10:28.184Z,97969.41
2018-08-28T21:12:57.174Z,97961.31
2018-08-28T21:15:25.995Z,97960.06
2018-08-28T21:17:54.590Z,97955.92
2018-08-28T21:20:22.901Z,97951.34
2018-08-28T21:22:51.171Z,97949.22
2018-08-28T21:25:19.494Z,97952.30
2018-08-28T21:27:47.750Z,97949.42
2018-08-28T21:30:16.040Z,97956.20
2018-08-28T21:32:44.318Z,97948.22
2018-08-28T21:35:12.534Z,97948.83
2018-08-28T21:37:41.093Z,97942.82
2018-08-28T21:40:11.616Z,97945.81
2018-08-28T21:42:39.854Z,97946.67
2018-08-28T21:45:08.073Z,97940.51
2018-08-28T21:47:36.301Z,97934.28
2018-08-28T21:50:04.693Z,97936.47
2018-08-28T21:52:32.931Z,97928.80
2018-08-28T21:55:01.293Z,97909.77
2018-08-28T21:57:29.573Z,97931.52
2018-08-28T21:59:57.914Z,97922.66
2018-08-28T22:02:26.243Z,97919.10
2018-08-28T22:04:54.481Z,97919.34
2018-08-28T22:07:28.149Z,97921.98
2018-08-28T22:09:56.382Z,97912.97
2018-08-28T22:12:24.679Z,97913.44
2018-08-28T22:14:52.941Z,97911.84
2018-08-28T22:17:22.117Z,97913.36
2018-08-28T22:19:50.413Z,97916.76
2018-08-28T22:22:18.669Z,97913.84
2018-08-28T22:24:46.850Z,97918.67
2018-08-28T22:27:15.038Z,97918.16
2018-08-28T22:29:43.250Z,97916.12
2018-08-28T22:32:11.658Z,97915.33
2018-08-28T22:34:39.903Z,97915.89
2018-08-28T22:37:08.141Z,97911.08
2018-08-28T22:39:36.374Z,97915.31
2018-08-28T22:42:04.609Z,97916.86
2018-08-28T22:44:42.559Z,97911.44
2018-08-28T22:47:15.468Z,97903.95
2018-08-28T22:49:43.725Z,97904.23
2018-08-28T22:52:11.901Z,97899.93
2018-08-28T22:54:40.105Z,97905.31
2018-08-28T22:57:08.301Z,97898.35
2018-08-28T22:59:58.043Z,97898.98
2018-08-28T23:02:26.965Z,97899.23
2018-08-28T23:04:55.322Z,97890.94
2018-08-28T23:07:23.782Z,97883.91
2018-08-28T23:09:51.962Z,97886.77
2018-08-28T23:12:20.196Z,97877.91
2018-08-28T23:14:48.333Z,97880.55
2018-08-28T23:17:16.521Z,97876.44
2018-08-28T23:19:44.698Z,97877.77
2018-08-28T23:22:12.966Z,97874.16
2018-08-28T23:24:48.710Z,97877.91
2018-08-28T23:27:21.218Z,97885.56
2018-08-28T23:29:49.486Z,97878.47
2018-08-28T23:32:17.732Z,97877.26
2018-08-28T23:34:45.938Z,97885.89
2018-08-28T23:37:14.231Z,97866.70
2018-08-28T23:39:42.502Z,97885.62
2018-08-28T23:42:10.816Z,97879.16
2018-08-28T23:44:39.073Z,97875.12
2018-08-28T23:47:07.294Z,97882.37
2018-08-28T23:49:35.482Z,97874.16
2018-08-28T23:52:03.932Z,97880.31
2018-08-28T23:54:32.143Z,97877.62
2018-08-28T23:57:00.434Z,97882.31
2018-08-28T23:59:28.606Z,97880.91
